sensor_id;sensor_type;location;lat;lon;timestamp;P1;durP1;ratioP1;P2;durP2;ratioP2
14923;SDS011;7554;43.600;1.480;2023-04-03T00:02:08;3.37;;;2.27;;
14923;SDS011;7554;43.600;1.480;2023-04-03T00:04:35;4.97;;;2.50;;
14923;SDS011;7554;43.600;1.480;2023-04-03T00:07:02;4.93;;;2.20;;
14923;SDS011;7554;43.600;1.480;2023-04-03T00:09:29;4.90;;;2.43;;
14923;SDS011;7554;43.600;1.480;2023-04-03T00:11:57;2.97;;;2.07;;
14923;SDS011;7554;43.600;1.480;2023-04-03T00:14:24;5.37;;;2.10;;
14923;SDS011;7554;43.600;1.480;2023-04-03T00:16:54;3.63;;;2.50;;
14923;SDS011;7554;43.600;1.480;2023-04-03T00:19:21;6.97;;;2.63;;
14923;SDS011;7554;43.600;1.480;2023-04-03T00:21:48;5.83;;;2.27;;
14923;SDS011;7554;43.600;1.480;2023-04-03T00:24:15;3.67;;;2.30;;
14923;SDS011;7554;43.600;1.480;2023-04-03T00:26:43;3.20;;;2.23;;
14923;SDS011;7554;43.600;1.480;2023-04-03T00:29:10;5.03;;;2.40;;
14923;SDS011;7554;43.600;1.480;2023-04-03T00:31:37;4.77;;;2.70;;
14923;SDS011;7554;43.600;1.480;2023-04-03T00:34:06;8.57;;;2.30;;
14923;SDS011;7554;43.600;1.480;2023-04-03T00:36:33;6.20;;;2.43;;
14923;SDS011;7554;43.600;1.480;2023-04-03T00:39:01;5.53;;;2.50;;
14923;SDS011;7554;43.600;1.480;2023-04-03T00:41:31;6.80;;;2.60;;
14923;SDS011;7554;43.600;1.480;2023-04-03T00:43:58;4.93;;;2.47;;
14923;SDS011;7554;43.600;1.480;2023-04-03T00:46:25;4.30;;;2.23;;
14923;SDS011;7554;43.600;1.480;2023-04-03T00:48:53;6.00;;;2.47;;
14923;SDS011;7554;43.600;1.480;2023-04-03T00:51:23;6.00;;;2.63;;
14923;SDS011;7554;43.600;1.480;2023-04-03T00:53:52;4.60;;;2.67;;
14923;SDS011;7554;43.600;1.480;2023-04-03T00:56:23;3.20;;;2.40;;
14923;SDS011;7554;43.600;1.480;2023-04-03T00:58:53;5.87;;;2.50;;
14923;SDS011;7554;43.600;1.480;2023-04-03T01:01:24;3.63;;;2.17;;
14923;SDS011;7554;43.600;1.480;2023-04-03T01:03:53;3.87;;;2.47;;
14923;SDS011;7554;43.600;1.480;2023-04-03T01:06:23;4.90;;;2.43;;
14923;SDS011;7554;43.600;1.480;2023-04-03T01:08:53;3.67;;;2.57;;
14923;SDS011;7554;43.600;1.480;2023-04-03T01:11:22;7.10;;;2.90;;
14923;SDS011;7554;43.600;1.480;2023-04-03T01:13:49;5.57;;;2.37;;
14923;SDS011;7554;43.600;1.480;2023-04-03T01:16:17;3.87;;;2.40;;
14923;SDS011;7554;43.600;1.480;2023-04-03T01:18:45;4.43;;;2.40;;
14923;SDS011;7554;43.600;1.480;2023-04-03T01:21:40;5.50;;;2.30;;
14923;SDS011;7554;43.600;1.480;2023-04-03T01:24:33;6.37;;;2.30;;
14923;SDS011;7554;43.600;1.480;2023-04-03T01:27:04;3.77;;;2.20;;
14923;SDS011;7554;43.600;1.480;2023-04-03T01:29:33;7.17;;;2.57;;
14923;SDS011;7554;43.600;1.480;2023-04-03T01:32:02;5.90;;;2.47;;
14923;SDS011;7554;43.600;1.480;2023-04-03T01:34:30;3.97;;;2.43;;
14923;SDS011;7554;43.600;1.480;2023-04-03T01:36:58;3.70;;;2.50;;
14923;SDS011;7554;43.600;1.480;2023-04-03T01:39:25;2.73;;;2.30;;
14923;SDS011;7554;43.600;1.480;2023-04-03T01:41:53;3.63;;;2.67;;
14923;SDS011;7554;43.600;1.480;2023-04-03T01:44:20;4.40;;;2.77;;
14923;SDS011;7554;43.600;1.480;2023-04-03T01:46:47;3.53;;;2.50;;
14923;SDS011;7554;43.600;1.480;2023-04-03T01:49:16;2.73;;;2.27;;
14923;SDS011;7554;43.600;1.480;2023-04-03T01:51:43;4.37;;;2.63;;
14923;SDS011;7554;43.600;1.480;2023-04-03T01:54:11;3.97;;;2.63;;
14923;SDS011;7554;43.600;1.480;2023-04-03T01:56:38;4.93;;;2.33;;
14923;SDS011;7554;43.600;1.480;2023-04-03T01:59:05;6.10;;;3.30;;
14923;SDS011;7554;43.600;1.480;2023-04-03T02:01:33;6.63;;;2.83;;
14923;SDS011;7554;43.600;1.480;2023-04-03T02:04:00;3.77;;;2.87;;
14923;SDS011;7554;43.600;1.480;2023-04-03T02:06:29;3.20;;;2.70;;
14923;SDS011;7554;43.600;1.480;2023-04-03T02:08:56;4.40;;;2.60;;
14923;SDS011;7554;43.600;1.480;2023-04-03T02:11:23;7.73;;;3.17;;
14923;SDS011;7554;43.600;1.480;2023-04-03T02:13:51;5.43;;;3.00;;
14923;SDS011;7554;43.600;1.480;2023-04-03T02:16:18;4.20;;;2.83;;
14923;SDS011;7554;43.600;1.480;2023-04-03T02:18:45;3.83;;;3.00;;
14923;SDS011;7554;43.600;1.480;2023-04-03T02:21:12;4.30;;;3.00;;
14923;SDS011;7554;43.600;1.480;2023-04-03T02:23:41;5.60;;;3.07;;
14923;SDS011;7554;43.600;1.480;2023-04-03T02:26:10;4.80;;;3.20;;
14923;SDS011;7554;43.600;1.480;2023-04-03T02:28:38;3.17;;;2.70;;
14923;SDS011;7554;43.600;1.480;2023-04-03T02:31:06;6.73;;;2.80;;
14923;SDS011;7554;43.600;1.480;2023-04-03T02:33:34;5.63;;;3.00;;
14923;SDS011;7554;43.600;1.480;2023-04-03T02:36:03;9.80;;;3.40;;
14923;SDS011;7554;43.600;1.480;2023-04-03T02:38:32;5.27;;;3.17;;
14923;SDS011;7554;43.600;1.480;2023-04-03T02:41:02;4.80;;;3.20;;
14923;SDS011;7554;43.600;1.480;2023-04-03T02:43:30;4.50;;;3.50;;
14923;SDS011;7554;43.600;1.480;2023-04-03T02:45:57;7.97;;;3.10;;
14923;SDS011;7554;43.600;1.480;2023-04-03T02:48:25;4.00;;;2.70;;
14923;SDS011;7554;43.600;1.480;2023-04-03T02:50:52;5.40;;;3.17;;
14923;SDS011;7554;43.600;1.480;2023-04-03T02:53:20;6.47;;;3.47;;
14923;SDS011;7554;43.600;1.480;2023-04-03T02:55:48;5.63;;;3.30;;
14923;SDS011;7554;43.600;1.480;2023-04-03T02:58:17;5.70;;;3.23;;
14923;SDS011;7554;43.600;1.480;2023-04-03T03:00:44;8.60;;;3.63;;
14923;SDS011;7554;43.600;1.480;2023-04-03T03:03:12;4.67;;;3.17;;
14923;SDS011;7554;43.600;1.480;2023-04-03T03:05:40;7.07;;;3.13;;
14923;SDS011;7554;43.600;1.480;2023-04-03T03:08:07;5.43;;;3.40;;
14923;SDS011;7554;43.600;1.480;2023-04-03T03:10:34;4.83;;;3.00;;
14923;SDS011;7554;43.600;1.480;2023-04-03T03:13:01;8.40;;;3.27;;
14923;SDS011;7554;43.600;1.480;2023-04-03T03:15:30;7.03;;;3.20;;
14923;SDS011;7554;43.600;1.480;2023-04-03T03:17:58;7.87;;;3.70;;
14923;SDS011;7554;43.600;1.480;2023-04-03T03:20:25;5.73;;;3.30;;
14923;SDS011;7554;43.600;1.480;2023-04-03T03:22:52;4.90;;;3.40;;
14923;SDS011;7554;43.600;1.480;2023-04-03T03:25:20;4.47;;;3.20;;
14923;SDS011;7554;43.600;1.480;2023-04-03T03:27:47;3.93;;;3.00;;
14923;SDS011;7554;43.600;1.480;2023-04-03T03:30:15;4.43;;;2.93;;
14923;SDS011;7554;43.600;1.480;2023-04-03T03:32:43;5.77;;;3.33;;
14923;SDS011;7554;43.600;1.480;2023-04-03T03:35:11;7.67;;;3.23;;
14923;SDS011;7554;43.600;1.480;2023-04-03T03:37:38;6.30;;;3.17;;
14923;SDS011;7554;43.600;1.480;2023-04-03T03:40:06;4.80;;;3.80;;
14923;SDS011;7554;43.600;1.480;2023-04-03T03:42:34;8.00;;;3.07;;
14923;SDS011;7554;43.600;1.480;2023-04-03T03:45:01;4.70;;;3.30;;
14923;SDS011;7554;43.600;1.480;2023-04-03T03:47:29;5.07;;;2.87;;
14923;SDS011;7554;43.600;1.480;2023-04-03T03:49:58;8.53;;;3.30;;
14923;SDS011;7554;43.600;1.480;2023-04-03T03:52:25;4.70;;;3.17;;
14923;SDS011;7554;43.600;1.480;2023-04-03T03:54:52;5.70;;;3.10;;
14923;SDS011;7554;43.600;1.480;2023-04-03T03:57:20;4.40;;;3.47;;
14923;SDS011;7554;43.600;1.480;2023-04-03T03:59:47;5.73;;;3.30;;
14923;SDS011;7554;43.600;1.480;2023-04-03T04:02:16;4.07;;;3.33;;
14923;SDS011;7554;43.600;1.480;2023-04-03T04:04:44;5.97;;;3.50;;
14923;SDS011;7554;43.600;1.480;2023-04-03T04:07:12;4.67;;;3.20;;
14923;SDS011;7554;43.600;1.480;2023-04-03T04:09:40;4.23;;;3.30;;
14923;SDS011;7554;43.600;1.480;2023-04-03T04:12:07;5.70;;;3.40;;
14923;SDS011;7554;43.600;1.480;2023-04-03T04:14:34;5.87;;;3.40;;
14923;SDS011;7554;43.600;1.480;2023-04-03T04:17:01;3.53;;;3.07;;
14923;SDS011;7554;43.600;1.480;2023-04-03T04:19:29;5.80;;;4.00;;
14923;SDS011;7554;43.600;1.480;2023-04-03T04:21:56;6.10;;;3.67;;
14923;SDS011;7554;43.600;1.480;2023-04-03T04:24:25;5.93;;;3.43;;
14923;SDS011;7554;43.600;1.480;2023-04-03T04:26:52;6.27;;;3.20;;
14923;SDS011;7554;43.600;1.480;2023-04-03T04:29:20;5.00;;;3.17;;
14923;SDS011;7554;43.600;1.480;2023-04-03T04:31:47;4.70;;;3.50;;
14923;SDS011;7554;43.600;1.480;2023-04-03T04:34:14;6.97;;;3.70;;
14923;SDS011;7554;43.600;1.480;2023-04-03T04:36:42;5.37;;;3.20;;
14923;SDS011;7554;43.600;1.480;2023-04-03T04:39:09;4.97;;;3.50;;
14923;SDS011;7554;43.600;1.480;2023-04-03T04:41:38;6.27;;;3.27;;
14923;SDS011;7554;43.600;1.480;2023-04-03T04:44:05;4.30;;;3.30;;
14923;SDS011;7554;43.600;1.480;2023-04-03T04:46:33;3.53;;;3.20;;
14923;SDS011;7554;43.600;1.480;2023-04-03T04:49:00;4.67;;;3.17;;
14923;SDS011;7554;43.600;1.480;2023-04-03T04:51:28;7.73;;;4.40;;
14923;SDS011;7554;43.600;1.480;2023-04-03T04:53:55;8.40;;;3.50;;
14923;SDS011;7554;43.600;1.480;2023-04-03T04:56:22;5.20;;;3.60;;
14923;SDS011;7554;43.600;1.480;2023-04-03T04:58:52;4.87;;;3.60;;
14923;SDS011;7554;43.600;1.480;2023-04-03T05:01:19;6.00;;;3.50;;
14923;SDS011;7554;43.600;1.480;2023-04-03T05:03:46;6.57;;;3.37;;
14923;SDS011;7554;43.600;1.480;2023-04-03T05:06:13;4.23;;;3.23;;
14923;SDS011;7554;43.600;1.480;2023-04-03T05:08:41;5.07;;;3.50;;
14923;SDS011;7554;43.600;1.480;2023-04-03T05:11:08;5.37;;;3.37;;
14923;SDS011;7554;43.600;1.480;2023-04-03T05:13:35;5.00;;;4.00;;
14923;SDS011;7554;43.600;1.480;2023-04-03T05:16:04;5.53;;;3.77;;
14923;SDS011;7554;43.600;1.480;2023-04-03T05:18:32;4.43;;;3.43;;
14923;SDS011;7554;43.600;1.480;2023-04-03T05:21:01;8.67;;;4.60;;
14923;SDS011;7554;43.600;1.480;2023-04-03T05:23:29;7.67;;;3.80;;
14923;SDS011;7554;43.600;1.480;2023-04-03T05:25:56;5.97;;;3.80;;
14923;SDS011;7554;43.600;1.480;2023-04-03T05:28:23;6.00;;;3.97;;
14923;SDS011;7554;43.600;1.480;2023-04-03T05:30:54;7.73;;;4.60;;
14923;SDS011;7554;43.600;1.480;2023-04-03T05:33:23;6.57;;;5.00;;
14923;SDS011;7554;43.600;1.480;2023-04-03T05:35:51;7.27;;;4.70;;
14923;SDS011;7554;43.600;1.480;2023-04-03T05:38:19;6.77;;;4.90;;
14923;SDS011;7554;43.600;1.480;2023-04-03T05:40:47;5.63;;;4.10;;
14923;SDS011;7554;43.600;1.480;2023-04-03T05:43:14;6.23;;;4.10;;
14923;SDS011;7554;43.600;1.480;2023-04-03T05:45:42;7.50;;;4.17;;
14923;SDS011;7554;43.600;1.480;2023-04-03T05:48:09;6.20;;;4.00;;
14923;SDS011;7554;43.600;1.480;2023-04-03T05:50:39;7.57;;;4.40;;
14923;SDS011;7554;43.600;1.480;2023-04-03T05:53:07;6.47;;;4.33;;
14923;SDS011;7554;43.600;1.480;2023-04-03T05:55:42;6.57;;;4.53;;
14923;SDS011;7554;43.600;1.480;2023-04-03T05:58:09;6.27;;;4.03;;
14923;SDS011;7554;43.600;1.480;2023-04-03T06:00:36;5.70;;;4.10;;
14923;SDS011;7554;43.600;1.480;2023-04-03T06:03:04;4.27;;;3.50;;
14923;SDS011;7554;43.600;1.480;2023-04-03T06:05:31;7.37;;;3.60;;
14923;SDS011;7554;43.600;1.480;2023-04-03T06:08:00;4.80;;;3.67;;
14923;SDS011;7554;43.600;1.480;2023-04-03T06:10:28;5.40;;;3.90;;
14923;SDS011;7554;43.600;1.480;2023-04-03T06:12:56;4.40;;;3.53;;
14923;SDS011;7554;43.600;1.480;2023-04-03T06:15:23;6.83;;;3.90;;
14923;SDS011;7554;43.600;1.480;2023-04-03T06:17:50;7.37;;;3.57;;
14923;SDS011;7554;43.600;1.480;2023-04-03T06:20:18;5.07;;;3.63;;
14923;SDS011;7554;43.600;1.480;2023-04-03T06:22:45;5.57;;;3.50;;
14923;SDS011;7554;43.600;1.480;2023-04-03T06:25:14;4.93;;;3.50;;
14923;SDS011;7554;43.600;1.480;2023-04-03T06:27:42;5.23;;;3.37;;
14923;SDS011;7554;43.600;1.480;2023-04-03T06:30:10;6.37;;;4.10;;
14923;SDS011;7554;43.600;1.480;2023-04-03T06:32:37;6.13;;;3.63;;
14923;SDS011;7554;43.600;1.480;2023-04-03T06:35:05;6.97;;;3.90;;
14923;SDS011;7554;43.600;1.480;2023-04-03T06:37:33;5.93;;;3.70;;
14923;SDS011;7554;43.600;1.480;2023-04-03T06:40:01;7.27;;;4.30;;
14923;SDS011;7554;43.600;1.480;2023-04-03T06:42:31;5.57;;;4.13;;
14923;SDS011;7554;43.600;1.480;2023-04-03T06:44:58;4.53;;;3.77;;
14923;SDS011;7554;43.600;1.480;2023-04-03T06:47:25;6.30;;;3.10;;
14923;SDS011;7554;43.600;1.480;2023-04-03T06:49:53;4.03;;;3.37;;
14923;SDS011;7554;43.600;1.480;2023-04-03T06:52:21;5.63;;;3.70;;
14923;SDS011;7554;43.600;1.480;2023-04-03T06:54:48;6.47;;;3.60;;
14923;SDS011;7554;43.600;1.480;2023-04-03T06:57:22;6.03;;;3.57;;
14923;SDS011;7554;43.600;1.480;2023-04-03T06:59:51;7.73;;;3.40;;
14923;SDS011;7554;43.600;1.480;2023-04-03T07:02:18;4.17;;;2.90;;
14923;SDS011;7554;43.600;1.480;2023-04-03T07:04:45;5.03;;;3.13;;
14923;SDS011;7554;43.600;1.480;2023-04-03T07:07:13;3.93;;;3.20;;
14923;SDS011;7554;43.600;1.480;2023-04-03T07:09:40;4.60;;;3.50;;
14923;SDS011;7554;43.600;1.480;2023-04-03T07:12:08;7.30;;;3.30;;
14923;SDS011;7554;43.600;1.480;2023-04-03T07:14:36;4.47;;;3.10;;
14923;SDS011;7554;43.600;1.480;2023-04-03T07:17:04;6.33;;;3.70;;
14923;SDS011;7554;43.600;1.480;2023-04-03T07:19:32;4.70;;;3.27;;
14923;SDS011;7554;43.600;1.480;2023-04-03T07:21:59;5.17;;;3.50;;
14923;SDS011;7554;43.600;1.480;2023-04-03T07:24:27;4.77;;;3.40;;
14923;SDS011;7554;43.600;1.480;2023-04-03T07:26:54;4.80;;;3.47;;
14923;SDS011;7554;43.600;1.480;2023-04-03T07:29:22;4.77;;;3.20;;
14923;SDS011;7554;43.600;1.480;2023-04-03T07:31:49;8.90;;;3.60;;
14923;SDS011;7554;43.600;1.480;2023-04-03T07:34:19;5.70;;;3.57;;
14923;SDS011;7554;43.600;1.480;2023-04-03T07:36:46;4.50;;;3.40;;
14923;SDS011;7554;43.600;1.480;2023-04-03T07:39:13;6.43;;;3.60;;
14923;SDS011;7554;43.600;1.480;2023-04-03T07:41:41;4.17;;;3.30;;
14923;SDS011;7554;43.600;1.480;2023-04-03T07:44:08;4.70;;;3.20;;
14923;SDS011;7554;43.600;1.480;2023-04-03T07:46:36;4.50;;;3.33;;
14923;SDS011;7554;43.600;1.480;2023-04-03T07:49:03;5.53;;;3.57;;
14923;SDS011;7554;43.600;1.480;2023-04-03T07:51:32;6.60;;;3.90;;
14923;SDS011;7554;43.600;1.480;2023-04-03T07:53:59;5.20;;;3.63;;
14923;SDS011;7554;43.600;1.480;2023-04-03T07:56:27;6.10;;;3.50;;
14923;SDS011;7554;43.600;1.480;2023-04-03T07:58:54;6.50;;;3.77;;
14923;SDS011;7554;43.600;1.480;2023-04-03T08:01:21;4.27;;;2.97;;
14923;SDS011;7554;43.600;1.480;2023-04-03T08:03:49;4.00;;;3.00;;
14923;SDS011;7554;43.600;1.480;2023-04-03T08:06:16;5.23;;;3.20;;
14923;SDS011;7554;43.600;1.480;2023-04-03T08:08:45;5.50;;;3.50;;
14923;SDS011;7554;43.600;1.480;2023-04-03T08:11:12;7.23;;;3.60;;
14923;SDS011;7554;43.600;1.480;2023-04-03T08:13:40;5.53;;;3.17;;
14923;SDS011;7554;43.600;1.480;2023-04-03T08:16:09;6.33;;;3.07;;
14923;SDS011;7554;43.600;1.480;2023-04-03T08:18:37;6.57;;;3.00;;
14923;SDS011;7554;43.600;1.480;2023-04-03T08:21:06;6.47;;;2.77;;
14923;SDS011;7554;43.600;1.480;2023-04-03T08:23:35;3.70;;;2.83;;
14923;SDS011;7554;43.600;1.480;2023-04-03T08:26:07;6.07;;;2.60;;
14923;SDS011;7554;43.600;1.480;2023-04-03T08:28:36;4.63;;;3.33;;
14923;SDS011;7554;43.600;1.480;2023-04-03T08:31:04;3.33;;;2.70;;
14923;SDS011;7554;43.600;1.480;2023-04-03T08:33:32;5.97;;;3.23;;
14923;SDS011;7554;43.600;1.480;2023-04-03T08:36:01;5.27;;;3.00;;
14923;SDS011;7554;43.600;1.480;2023-04-03T08:38:29;4.37;;;2.93;;
14923;SDS011;7554;43.600;1.480;2023-04-03T08:41:00;5.63;;;2.73;;
14923;SDS011;7554;43.600;1.480;2023-04-03T08:43:34;3.77;;;2.60;;
14923;SDS011;7554;43.600;1.480;2023-04-03T08:46:10;5.30;;;2.70;;
14923;SDS011;7554;43.600;1.480;2023-04-03T08:48:41;4.43;;;2.83;;
14923;SDS011;7554;43.600;1.480;2023-04-03T08:51:11;3.83;;;2.50;;
14923;SDS011;7554;43.600;1.480;2023-04-03T08:53:42;5.03;;;3.60;;
14923;SDS011;7554;43.600;1.480;2023-04-03T08:56:12;6.27;;;2.97;;
14923;SDS011;7554;43.600;1.480;2023-04-03T08:58:48;3.57;;;2.20;;
14923;SDS011;7554;43.600;1.480;2023-04-03T09:01:20;4.20;;;2.63;;
14923;SDS011;7554;43.600;1.480;2023-04-03T09:03:51;5.03;;;2.63;;
14923;SDS011;7554;43.600;1.480;2023-04-03T09:06:19;4.57;;;2.30;;
14923;SDS011;7554;43.600;1.480;2023-04-03T09:08:49;5.30;;;2.27;;
14923;SDS011;7554;43.600;1.480;2023-04-03T09:11:23;4.97;;;2.23;;
14923;SDS011;7554;43.600;1.480;2023-04-03T09:13:56;3.30;;;2.07;;
14923;SDS011;7554;43.600;1.480;2023-04-03T09:16:31;7.80;;;2.57;;
14923;SDS011;7554;43.600;1.480;2023-04-03T09:19:06;3.47;;;2.03;;
14923;SDS011;7554;43.600;1.480;2023-04-03T09:21:39;5.90;;;2.17;;
14923;SDS011;7554;43.600;1.480;2023-04-03T09:24:09;3.93;;;2.27;;
14923;SDS011;7554;43.600;1.480;2023-04-03T09:26:40;3.33;;;1.60;;
14923;SDS011;7554;43.600;1.480;2023-04-03T09:29:15;4.43;;;1.73;;
14923;SDS011;7554;43.600;1.480;2023-04-03T09:31:46;4.60;;;1.77;;
14923;SDS011;7554;43.600;1.480;2023-04-03T09:34:18;3.23;;;1.80;;
14923;SDS011;7554;43.600;1.480;2023-04-03T09:36:49;3.43;;;1.67;;
14923;SDS011;7554;43.600;1.480;2023-04-03T09:39:19;4.63;;;2.17;;
14923;SDS011;7554;43.600;1.480;2023-04-03T09:42:00;4.27;;;1.80;;
14923;SDS011;7554;43.600;1.480;2023-04-03T09:44:30;3.93;;;1.67;;
14923;SDS011;7554;43.600;1.480;2023-04-03T09:47:00;2.73;;;1.57;;
14923;SDS011;7554;43.600;1.480;2023-04-03T09:49:45;3.70;;;1.53;;
14923;SDS011;7554;43.600;1.480;2023-04-03T09:52:18;3.10;;;1.83;;
14923;SDS011;7554;43.600;1.480;2023-04-03T09:54:46;2.33;;;1.73;;
14923;SDS011;7554;43.600;1.480;2023-04-03T09:57:14;3.83;;;2.00;;
14923;SDS011;7554;43.600;1.480;2023-04-03T09:59:47;3.70;;;2.10;;
14923;SDS011;7554;43.600;1.480;2023-04-03T10:02:32;3.57;;;1.90;;
14923;SDS011;7554;43.600;1.480;2023-04-03T10:05:05;3.07;;;1.43;;
14923;SDS011;7554;43.600;1.480;2023-04-03T10:07:56;5.70;;;1.80;;
14923;SDS011;7554;43.600;1.480;2023-04-03T10:10:45;3.37;;;1.60;;
14923;SDS011;7554;43.600;1.480;2023-04-03T10:13:15;2.60;;;1.63;;
14923;SDS011;7554;43.600;1.480;2023-04-03T10:15:48;3.60;;;1.87;;
14923;SDS011;7554;43.600;1.480;2023-04-03T10:18:28;3.30;;;1.80;;
14923;SDS011;7554;43.600;1.480;2023-04-03T10:20:59;2.23;;;1.47;;
14923;SDS011;7554;43.600;1.480;2023-04-03T10:23:33;5.10;;;1.70;;
14923;SDS011;7554;43.600;1.480;2023-04-03T10:26:09;4.07;;;1.60;;
14923;SDS011;7554;43.600;1.480;2023-04-03T10:28:44;2.97;;;1.70;;
14923;SDS011;7554;43.600;1.480;2023-04-03T10:31:21;2.53;;;1.50;;
14923;SDS011;7554;43.600;1.480;2023-04-03T10:33:56;4.27;;;1.47;;
14923;SDS011;7554;43.600;1.480;2023-04-03T10:36:33;4.33;;;1.40;;
14923;SDS011;7554;43.600;1.480;2023-04-03T10:39:08;2.80;;;1.77;;
14923;SDS011;7554;43.600;1.480;2023-04-03T10:41:46;1.60;;;1.10;;
14923;SDS011;7554;43.600;1.480;2023-04-03T10:44:24;1.97;;;1.13;;
14923;SDS011;7554;43.600;1.480;2023-04-03T10:47:01;2.67;;;1.50;;
14923;SDS011;7554;43.600;1.480;2023-04-03T10:49:36;3.20;;;1.30;;
14923;SDS011;7554;43.600;1.480;2023-04-03T10:52:13;1.90;;;1.20;;
14923;SDS011;7554;43.600;1.480;2023-04-03T10:54:46;2.63;;;1.63;;
14923;SDS011;7554;43.600;1.480;2023-04-03T10:57:23;4.37;;;1.67;;
14923;SDS011;7554;43.600;1.480;2023-04-03T10:59:52;2.67;;;1.13;;
14923;SDS011;7554;43.600;1.480;2023-04-03T11:02:25;3.77;;;1.33;;
14923;SDS011;7554;43.600;1.480;2023-04-03T11:04:56;4.17;;;1.57;;
14923;SDS011;7554;43.600;1.480;2023-04-03T11:07:28;2.40;;;1.20;;
14923;SDS011;7554;43.600;1.480;2023-04-03T11:10:00;3.57;;;1.13;;
14923;SDS011;7554;43.600;1.480;2023-04-03T11:12:35;3.53;;;0.83;;
14923;SDS011;7554;43.600;1.480;2023-04-03T11:15:11;4.00;;;1.50;;
14923;SDS011;7554;43.600;1.480;2023-04-03T11:17:42;3.13;;;1.20;;
14923;SDS011;7554;43.600;1.480;2023-04-03T11:20:16;3.27;;;1.20;;
14923;SDS011;7554;43.600;1.480;2023-04-03T11:22:47;1.73;;;1.13;;
14923;SDS011;7554;43.600;1.480;2023-04-03T11:25:19;2.20;;;0.87;;
14923;SDS011;7554;43.600;1.480;2023-04-03T11:27:50;4.00;;;1.00;;
14923;SDS011;7554;43.600;1.480;2023-04-03T11:30:22;3.43;;;1.10;;
14923;SDS011;7554;43.600;1.480;2023-04-03T11:33:05;4.37;;;1.10;;
14923;SDS011;7554;43.600;1.480;2023-04-03T11:35:51;2.43;;;0.80;;
14923;SDS011;7554;43.600;1.480;2023-04-03T11:38:23;4.13;;;0.90;;
14923;SDS011;7554;43.600;1.480;2023-04-03T11:40:54;2.23;;;0.80;;
14923;SDS011;7554;43.600;1.480;2023-04-03T11:43:23;2.40;;;1.27;;
14923;SDS011;7554;43.600;1.480;2023-04-03T11:45:53;3.50;;;1.20;;
14923;SDS011;7554;43.600;1.480;2023-04-03T11:48:49;2.23;;;1.10;;
14923;SDS011;7554;43.600;1.480;2023-04-03T12:12:41;2.63;;;1.13;;
14923;SDS011;7554;43.600;1.480;2023-04-03T12:15:16;2.47;;;1.30;;
14923;SDS011;7554;43.600;1.480;2023-04-03T12:17:50;2.33;;;1.23;;
14923;SDS011;7554;43.600;1.480;2023-04-03T12:23:29;1.57;;;1.07;;
14923;SDS011;7554;43.600;1.480;2023-04-03T12:26:02;3.70;;;0.90;;
14923;SDS011;7554;43.600;1.480;2023-04-03T12:28:44;3.40;;;1.03;;
14923;SDS011;7554;43.600;1.480;2023-04-03T12:31:13;2.47;;;0.80;;
14923;SDS011;7554;43.600;1.480;2023-04-03T12:36:36;2.53;;;1.13;;
14923;SDS011;7554;43.600;1.480;2023-04-03T12:42:26;2.87;;;0.97;;
14923;SDS011;7554;43.600;1.480;2023-04-03T12:45:16;1.93;;;0.83;;
14923;SDS011;7554;43.600;1.480;2023-04-03T12:47:45;2.00;;;1.00;;
14923;SDS011;7554;43.600;1.480;2023-04-03T12:50:20;3.33;;;1.67;;
14923;SDS011;7554;43.600;1.480;2023-04-03T12:52:54;1.63;;;1.00;;
14923;SDS011;7554;43.600;1.480;2023-04-03T12:55:24;1.83;;;1.43;;
14923;SDS011;7554;43.600;1.480;2023-04-03T12:57:51;3.87;;;1.70;;
14923;SDS011;7554;43.600;1.480;2023-04-03T13:00:20;3.27;;;1.20;;
14923;SDS011;7554;43.600;1.480;2023-04-03T13:02:52;3.20;;;1.23;;
14923;SDS011;7554;43.600;1.480;2023-04-03T13:05:21;3.00;;;0.90;;
14923;SDS011;7554;43.600;1.480;2023-04-03T13:07:49;2.03;;;1.00;;
14923;SDS011;7554;43.600;1.480;2023-04-03T13:10:20;5.03;;;1.67;;
14923;SDS011;7554;43.600;1.480;2023-04-03T13:12:52;2.60;;;1.07;;
14923;SDS011;7554;43.600;1.480;2023-04-03T13:15:21;3.20;;;1.33;;
14923;SDS011;7554;43.600;1.480;2023-04-03T13:17:50;3.57;;;1.10;;
14923;SDS011;7554;43.600;1.480;2023-04-03T13:20:19;3.90;;;0.90;;
14923;SDS011;7554;43.600;1.480;2023-04-03T13:22:53;3.43;;;1.17;;
14923;SDS011;7554;43.600;1.480;2023-04-03T13:25:27;4.60;;;1.47;;
14923;SDS011;7554;43.600;1.480;2023-04-03T13:27:57;2.23;;;1.17;;
14923;SDS011;7554;43.600;1.480;2023-04-03T13:30:28;1.87;;;0.93;;
14923;SDS011;7554;43.600;1.480;2023-04-03T13:32:58;2.67;;;0.70;;
14923;SDS011;7554;43.600;1.480;2023-04-03T13:35:29;3.10;;;1.13;;
14923;SDS011;7554;43.600;1.480;2023-04-03T13:38:00;3.67;;;1.30;;
14923;SDS011;7554;43.600;1.480;2023-04-03T13:40:31;1.73;;;0.90;;
14923;SDS011;7554;43.600;1.480;2023-04-03T13:43:00;2.07;;;1.00;;
14923;SDS011;7554;43.600;1.480;2023-04-03T13:45:32;3.40;;;1.37;;
14923;SDS011;7554;43.600;1.480;2023-04-03T13:48:08;2.47;;;1.07;;
14923;SDS011;7554;43.600;1.480;2023-04-03T13:50:53;6.10;;;1.23;;
14923;SDS011;7554;43.600;1.480;2023-04-03T13:53:25;3.73;;;1.20;;
14923;SDS011;7554;43.600;1.480;2023-04-03T13:55:57;2.50;;;1.37;;
14923;SDS011;7554;43.600;1.480;2023-04-03T13:58:27;3.30;;;1.17;;
14923;SDS011;7554;43.600;1.480;2023-04-03T14:00:59;1.80;;;0.80;;
14923;SDS011;7554;43.600;1.480;2023-04-03T14:03:37;2.63;;;1.20;;
14923;SDS011;7554;43.600;1.480;2023-04-03T14:06:08;2.13;;;1.00;;
14923;SDS011;7554;43.600;1.480;2023-04-03T14:08:37;3.43;;;1.37;;
14923;SDS011;7554;43.600;1.480;2023-04-03T14:11:08;4.73;;;1.30;;
14923;SDS011;7554;43.600;1.480;2023-04-03T14:13:39;3.13;;;1.37;;
14923;SDS011;7554;43.600;1.480;2023-04-03T14:16:06;2.93;;;1.07;;
14923;SDS011;7554;43.600;1.480;2023-04-03T14:18:33;2.27;;;1.30;;
14923;SDS011;7554;43.600;1.480;2023-04-03T14:21:01;3.40;;;1.50;;
14923;SDS011;7554;43.600;1.480;2023-04-03T14:23:29;2.10;;;1.17;;
14923;SDS011;7554;43.600;1.480;2023-04-03T14:25:58;5.90;;;1.60;;
14923;SDS011;7554;43.600;1.480;2023-04-03T14:28:28;4.20;;;1.50;;
14923;SDS011;7554;43.600;1.480;2023-04-03T14:30:57;4.33;;;1.40;;
14923;SDS011;7554;43.600;1.480;2023-04-03T14:33:25;3.80;;;1.43;;
14923;SDS011;7554;43.600;1.480;2023-04-03T14:35:59;2.83;;;1.30;;
14923;SDS011;7554;43.600;1.480;2023-04-03T14:38:28;3.20;;;1.33;;
14923;SDS011;7554;43.600;1.480;2023-04-03T14:40:57;3.47;;;1.37;;
14923;SDS011;7554;43.600;1.480;2023-04-03T14:43:24;2.40;;;1.20;;
14923;SDS011;7554;43.600;1.480;2023-04-03T14:45:53;3.17;;;1.40;;
14923;SDS011;7554;43.600;1.480;2023-04-03T14:48:22;3.27;;;1.40;;
14923;SDS011;7554;43.600;1.480;2023-04-03T14:50:51;3.43;;;1.10;;
14923;SDS011;7554;43.600;1.480;2023-04-03T14:53:21;4.13;;;1.50;;
14923;SDS011;7554;43.600;1.480;2023-04-03T14:55:51;2.60;;;1.07;;
14923;SDS011;7554;43.600;1.480;2023-04-03T14:58:19;2.90;;;1.33;;
14923;SDS011;7554;43.600;1.480;2023-04-03T15:00:47;4.00;;;1.17;;
14923;SDS011;7554;43.600;1.480;2023-04-03T15:03:16;2.00;;;1.20;;
14923;SDS011;7554;43.600;1.480;2023-04-03T15:05:45;4.07;;;1.47;;
14923;SDS011;7554;43.600;1.480;2023-04-03T15:08:17;2.77;;;1.30;;
14923;SDS011;7554;43.600;1.480;2023-04-03T15:10:47;4.83;;;1.33;;
14923;SDS011;7554;43.600;1.480;2023-04-03T15:13:15;3.73;;;1.50;;
14923;SDS011;7554;43.600;1.480;2023-04-03T15:15:42;3.70;;;1.30;;
14923;SDS011;7554;43.600;1.480;2023-04-03T15:18:14;2.33;;;1.37;;
14923;SDS011;7554;43.600;1.480;2023-04-03T15:20:46;3.57;;;1.60;;
14923;SDS011;7554;43.600;1.480;2023-04-03T15:23:16;3.67;;;1.40;;
14923;SDS011;7554;43.600;1.480;2023-04-03T15:25:44;7.90;;;1.60;;
14923;SDS011;7554;43.600;1.480;2023-04-03T15:28:15;3.97;;;1.70;;
14923;SDS011;7554;43.600;1.480;2023-04-03T15:30:45;2.70;;;1.37;;
14923;SDS011;7554;43.600;1.480;2023-04-03T15:33:13;4.47;;;1.60;;
14923;SDS011;7554;43.600;1.480;2023-04-03T15:35:42;2.87;;;1.37;;
14923;SDS011;7554;43.600;1.480;2023-04-03T15:38:09;4.03;;;1.87;;
14923;SDS011;7554;43.600;1.480;2023-04-03T15:40:37;3.80;;;1.60;;
14923;SDS011;7554;43.600;1.480;2023-04-03T15:43:04;6.17;;;1.50;;
14923;SDS011;7554;43.600;1.480;2023-04-03T15:45:33;2.47;;;1.50;;
14923;SDS011;7554;43.600;1.480;2023-04-03T15:48:02;2.00;;;1.13;;